Time;durP1;ratioP1;P1;durP2;ratioP2;P2;SDS_P1;SDS_P2;PMS_P1;PMS_P2;Temp;Humidity;BMP_temperature;BMP_pressure;BME280_temperature;BME280_humidity;BME280_pressure;Samples;Min_cycle;Max_cycle;Signal;HPM_P1;HPM_P2
2022/06/13 00:01:34;;;;;;;1.10;0.90;;;26.30;49.10;;;;;;5057517;28;20729;-62
2022/06/13 00:04:02;;;;;;;1.75;1.17;;;26.40;49.10;;;;;;5057981;28;20591;-65
2022/06/13 00:06:27;;;;;;;1.60;1.13;;;26.30;49.10;;;;;;5057939;28;20807;-62
2022/06/13 00:08:53;;;;;;;1.60;1.00;;;26.30;49.10;;;;;;5057677;28;20060;-66
2022/06/13 00:11:23;;;;;;;2.00;1.05;;;26.30;49.10;;;;;;5056914;28;20039;-66
2022/06/13 00:13:52;;;;;;;1.63;1.00;;;26.30;49.70;;;;;;5058098;28;20024;-65
2022/06/13 00:16:18;;;;;;;1.38;0.90;;;26.30;49.20;;;;;;5057049;28;20029;-62
2022/06/13 00:18:47;;;;;;;1.58;1.00;;;26.30;49.20;;;;;;5057668;28;20035;-65
2022/06/13 00:21:19;;;;;;;1.10;1.00;;;26.30;49.20;;;;;;5057272;28;20067;-67
2022/06/13 00:23:46;;;;;;;1.10;1.00;;;26.30;49.20;;;;;;5054067;28;20025;-64
2022/06/13 00:26:12;;;;;;;1.38;1.00;;;26.30;49.20;;;;;;5056824;28;20143;-67
2022/06/13 00:28:38;;;;;;;1.67;1.00;;;26.30;49.20;;;;;;5058675;28;20429;-65
2022/06/13 00:31:03;;;;;;;1.35;1.00;;;26.30;49.20;;;;;;5055939;28;20089;-65
2022/06/13 00:33:29;;;;;;;1.52;1.00;;;26.30;49.30;;;;;;5055677;28;20472;-64
2022/06/13 00:35:54;;;;;;;1.30;0.88;;;26.20;49.20;;;;;;5056923;28;20036;-66
2022/06/13 00:38:20;;;;;;;1.40;1.00;;;26.30;49.30;;;;;;5055412;28;20023;-62
2022/06/13 00:40:46;;;;;;;1.52;0.90;;;26.30;49.30;;;;;;5056548;28;20061;-65
2022/06/13 00:43:16;;;;;;;1.63;1.10;;;26.30;49.30;;;;;;5055131;28;20380;-66
2022/06/13 00:45:43;;;;;;;1.92;1.00;;;26.30;49.30;;;;;;5057305;28;20472;-61
2022/06/13 00:48:12;;;;;;;1.15;0.95;;;26.20;49.20;;;;;;5056982;28;20031;-63
2022/06/13 00:50:52;;;;;;;1.13;1.00;;;26.20;49.30;;;;;;5056418;28;20438;-65
2022/06/13 00:53:17;;;;;;;1.27;0.90;;;26.20;49.30;;;;;;5057722;28;20032;-68
2022/06/13 00:55:56;;;;;;;1.65;1.00;;;26.20;49.30;;;;;;5055672;28;20038;-65
2022/06/13 00:58:25;;;;;;;1.27;1.02;;;26.20;49.30;;;;;;5057222;28;20147;-65
2022/06/13 01:00:54;;;;;;;1.05;0.88;;;26.20;49.40;;;;;;5056056;28;20036;-65
2022/06/13 01:03:21;;;;;;;1.77;1.10;;;26.20;49.40;;;;;;5056528;28;20056;-61
2022/06/13 01:05:49;;;;;;;1.90;1.10;;;26.20;49.40;;;;;;5056756;28;20535;-64
2022/06/13 01:08:17;;;;;;;1.35;0.98;;;26.20;49.40;;;;;;5056623;28;20512;-61
2022/06/13 01:14:10;;;;;;;1.52;1.00;;;26.10;49.30;;;;;;5054591;28;20155;-66
2022/06/13 01:17:18;;;;;;;1.15;0.80;;;26.10;49.40;;;;;;5055353;28;20568;-67
2022/06/13 01:19:54;;;;;;;1.50;1.10;;;26.10;49.30;;;;;;5024544;28;20674;-65
2022/06/13 01:22:54;;;;;;;1.13;0.90;;;26.10;49.30;;;;;;5057109;28;20032;-69
2022/06/13 01:25:19;;;;;;;1.20;0.90;;;26.10;49.30;;;;;;5055953;28;20099;-67
2022/06/13 01:27:45;;;;;;;1.60;1.00;;;26.10;49.30;;;;;;5058011;28;20540;-62
2022/06/13 01:30:42;;;;;;;1.20;0.90;;;26.10;49.30;;;;;;5055346;28;20051;-61
2022/06/13 01:33:24;;;;;;;1.25;0.93;;;26.10;49.40;;;;;;5056617;28;20029;-66
2022/06/13 01:36:09;;;;;;;1.80;1.10;;;26.10;49.40;;;;;;5054220;28;20094;-66
2022/06/13 01:39:12;;;;;;;1.48;1.00;;;26.10;49.40;;;;;;5054674;28;20024;-66
2022/06/13 01:42:09;;;;;;;1.73;1.00;;;26.10;49.40;;;;;;4968596;28;20057;-66
2022/06/13 01:44:49;;;;;;;1.50;0.90;;;26.10;49.40;;;;;;5032473;28;20038;-63
2022/06/13 01:47:18;;;;;;;1.23;0.95;;;26.00;49.30;;;;;;5058217;28;20035;-62
2022/06/13 01:50:05;;;;;;;1.48;0.90;;;26.00;49.30;;;;;;5055267;28;20047;-66
2022/06/13 01:52:45;;;;;;;1.70;1.00;;;26.00;49.30;;;;;;5056605;28;20653;-67
2022/06/13 01:55:19;;;;;;;;;;;26.00;49.40;;;;;;5054612;28;20036;-66
2022/06/13 01:57:51;;;;;;;1.88;0.90;;;26.00;49.30;;;;;;5057392;28;20010;-66
2022/06/13 02:00:27;;;;;;;1.20;1.00;;;26.00;49.90;;;;;;5055286;28;20109;-65
2022/06/13 02:03:19;;;;;;;1.92;1.10;;;26.00;49.30;;;;;;5056390;28;20133;-66
2022/06/13 02:06:16;;;;;;;1.33;1.00;;;26.00;49.40;;;;;;5057542;28;20060;-66
2022/06/13 02:09:05;;;;;;;1.30;1.00;;;26.00;49.40;;;;;;5053030;28;20143;-66
2022/06/13 02:11:46;;;;;;;1.08;0.95;;;26.00;49.40;;;;;;5056613;28;20021;-66
2022/06/13 02:14:17;;;;;;;1.45;1.00;;;26.00;49.40;;;;;;5060436;28;20032;-66
2022/06/13 02:16:46;;;;;;;1.60;1.00;;;26.00;49.40;;;;;;5060355;28;20037;-63
2022/06/13 02:19:20;;;;;;;1.40;0.98;;;26.00;49.40;;;;;;5059728;28;21294;-65
2022/06/13 02:21:51;;;;;;;1.75;1.00;;;26.00;49.40;;;;;;5060497;28;20472;-66
2022/06/13 02:24:22;;;;;;;1.20;1.00;;;25.90;49.40;;;;;;5057321;28;20055;-66
2022/06/13 02:26:55;;;;;;;1.42;1.00;;;26.00;49.50;;;;;;5060837;28;20028;-63
2022/06/13 02:29:26;;;;;;;1.10;0.90;;;25.90;49.40;;;;;;5059167;28;20035;-66
2022/06/13 02:31:59;;;;;;;1.60;1.00;;;25.90;49.50;;;;;;5055962;28;20055;-66
2022/06/13 02:34:37;;;;;;;1.00;0.88;;;25.90;49.50;;;;;;5058227;28;20101;-65
2022/06/13 02:37:31;;;;;;;1.23;0.93;;;25.90;49.50;;;;;;5059248;28;20094;-66
2022/06/13 02:40:08;;;;;;;1.23;0.93;;;25.90;49.50;;;;;;5056868;28;20416;-65
2022/06/13 02:43:02;;;;;;;1.23;1.00;;;25.90;49.50;;;;;;5058964;28;20112;-65
2022/06/13 02:45:39;;;;;;;1.13;0.90;;;25.90;49.50;;;;;;5056121;28;20538;-66
2022/06/13 02:48:11;;;;;;;1.55;1.00;;;25.90;49.50;;;;;;5058881;28;20033;-66
2022/06/13 02:50:50;;;;;;;1.10;0.80;;;25.90;49.50;;;;;;5057924;28;20086;-63
2022/06/13 02:53:34;;;;;;;;;;;25.90;49.50;;;;;;5058004;28;20946;-65
2022/06/13 02:56:31;;;;;;;1.02;0.80;;;25.90;49.60;;;;;;5059029;28;19916;-62
2022/06/13 02:59:11;;;;;;;0.93;0.80;;;25.80;49.50;;;;;;5058278;28;20101;-66
2022/06/13 03:01:47;;;;;;;1.00;0.90;;;25.90;49.60;;;;;;5057692;28;20060;-65
2022/06/13 03:04:42;;;;;;;0.82;0.80;;;25.80;49.50;;;;;;5058799;28;20028;-65
2022/06/13 03:07:23;;;;;;;0.95;0.80;;;25.80;49.60;;;;;;5060233;28;20032;-62
2022/06/13 03:09:51;;;;;;;1.30;0.90;;;25.80;49.60;;;;;;5052324;28;20048;-66
2022/06/13 03:12:31;;;;;;;1.30;0.80;;;25.80;49.60;;;;;;5059148;28;20032;-65
2022/06/13 03:15:20;;;;;;;2.15;1.00;;;25.80;49.60;;;;;;5057856;28;20070;-66
2022/06/13 03:17:53;;;;;;;1.25;0.90;;;25.80;49.60;;;;;;5060616;28;20028;-62
2022/06/13 03:20:30;;;;;;;1.17;0.80;;;25.80;49.60;;;;;;5058534;28;20132;-64
2022/06/13 03:23:12;;;;;;;1.55;1.00;;;25.80;49.60;;;;;;5057828;28;20044;-65
2022/06/13 03:25:50;;;;;;;1.25;0.90;;;25.80;49.60;;;;;;5054496;28;20056;-66
2022/06/13 03:28:42;;;;;;;0.73;0.73;;;25.80;49.60;;;;;;5060225;28;20070;-65
2022/06/13 03:31:12;;;;;;;1.20;0.80;;;25.70;49.60;;;;;;5053496;28;20450;-66
2022/06/13 03:33:43;;;;;;;0.80;0.80;;;25.80;49.70;;;;;;5058145;28;20047;-65
2022/06/13 03:36:32;;;;;;;0.70;0.65;;;25.70;49.60;;;;;;5053779;28;20472;-66
2022/06/13 03:39:10;;;;;;;1.10;0.80;;;25.70;49.70;;;;;;5038069;28;20039;-65
2022/06/13 03:41:49;;;;;;;1.45;0.90;;;25.70;49.70;;;;;;5058333;28;20066;-65
2022/06/13 03:44:24;;;;;;;1.13;0.88;;;25.70;49.60;;;;;;5057836;28;20380;-63
2022/06/13 03:47:18;;;;;;;0.70;0.70;;;25.70;49.70;;;;;;5060206;28;20036;-62
2022/06/13 03:49:54;;;;;;;0.70;0.63;;;25.70;49.70;;;;;;5042763;28;20048;-66
2022/06/13 03:52:20;;;;;;;1.00;0.80;;;25.70;49.70;;;;;;5056790;28;20454;-65
2022/06/13 03:54:52;;;;;;;0.77;0.77;;;25.70;49.70;;;;;;5055904;28;20143;-63
2022/06/13 03:57:35;;;;;;;0.98;0.80;;;25.70;49.70;;;;;;5056766;28;20507;-65
2022/06/13 04:00:13;;;;;;;1.05;0.85;;;25.70;49.70;;;;;;5059829;28;20111;-62
2022/06/13 04:02:40;;;;;;;1.02;0.80;;;25.70;49.70;;;;;;5057375;28;20090;-63
2022/06/13 04:05:14;;;;;;;1.00;0.90;;;25.70;49.80;;;;;;5056778;28;20040;-65
2022/06/13 04:07:42;;;;;;;1.00;0.80;;;25.70;49.70;;;;;;5057419;28;20099;-65
2022/06/13 04:10:12;;;;;;;1.10;0.90;;;25.70;49.80;;;;;;5055944;28;20028;-65
2022/06/13 04:12:56;;;;;;;1.00;0.90;;;25.70;49.80;;;;;;5059171;28;20020;-64
2022/06/13 04:15:56;;;;;;;1.10;0.85;;;25.70;49.80;;;;;;5058383;28;20388;-65
2022/06/13 04:18:50;;;;;;;0.95;0.80;;;25.70;49.80;;;;;;5057805;28;20029;-65
2022/06/13 04:21:46;;;;;;;1.08;0.90;;;25.60;49.70;;;;;;5058286;28;20101;-66
2022/06/13 04:24:30;;;;;;;1.02;0.80;;;25.60;49.70;;;;;;5055837;28;20032;-65
2022/06/13 04:27:15;;;;;;;1.73;0.90;;;25.70;49.80;;;;;;5057764;28;21361;-65
2022/06/13 04:29:46;;;;;;;1.33;0.80;;;25.70;49.80;;;;;;5056676;28;20032;-66
2022/06/13 04:32:16;;;;;;;0.80;0.70;;;25.60;49.90;;;;;;5057922;28;20044;-65
2022/06/13 04:34:50;;;;;;;1.02;0.80;;;25.60;49.80;;;;;;5052122;28;20047;-66
2022/06/13 04:37:17;;;;;;;0.95;0.70;;;25.60;49.80;;;;;;5055384;28;20044;-66
2022/06/13 04:39:45;;;;;;;1.27;0.90;;;25.60;49.80;;;;;;5054397;28;20028;-66
2022/06/13 04:42:14;;;;;;;1.17;0.90;;;25.60;49.80;;;;;;5057156;28;20150;-65
2022/06/13 04:44:41;;;;;;;0.95;0.80;;;25.60;49.90;;;;;;5057254;28;20087;-62
2022/06/13 04:47:08;;;;;;;0.88;0.80;;;25.60;49.90;;;;;;5055569;28;20534;-65
2022/06/13 04:49:41;;;;;;;1.20;0.90;;;25.60;49.80;;;;;;5058147;28;20527;-66
2022/06/13 04:52:15;;;;;;;0.80;0.70;;;25.60;49.80;;;;;;5055883;28;20036;-66
2022/06/13 04:54:49;;;;;;;0.90;0.80;;;25.60;49.90;;;;;;5053386;28;20032;-65
2022/06/13 04:57:17;;;;;;;0.93;0.70;;;25.60;49.80;;;;;;5057098;28;20549;-65
2022/06/13 04:59:43;;;;;;;0.82;0.73;;;25.60;49.80;;;;;;5057348;28;20025;-65
2022/06/13 05:02:15;;;;;;;0.93;0.80;;;25.60;49.80;;;;;;5056111;28;20042;-66
2022/06/13 05:04:41;;;;;;;1.27;0.98;;;25.60;49.90;;;;;;5057116;28;20035;-65
2022/06/13 05:07:17;;;;;;;1.25;0.80;;;25.60;49.90;;;;;;5055880;28;20025;-66
2022/06/13 05:10:00;;;;;;;0.80;0.77;;;25.60;49.90;;;;;;5054669;28;20063;-63
2022/06/13 05:12:41;;;;;;;1.33;0.82;;;25.50;49.80;;;;;;5058635;28;20368;-65
2022/06/13 05:15:10;;;;;;;1.30;0.90;;;25.50;49.80;;;;;;5056226;28;20644;-65
2022/06/13 05:18:10;;;;;;;1.25;0.80;;;25.50;49.90;;;;;;5054599;28;20135;-66
2022/06/13 05:20:57;;;;;;;1.45;0.77;;;25.50;49.80;;;;;;5055791;28;20042;-65
2022/06/13 05:23:32;;;;;;;1.45;0.90;;;25.50;49.90;;;;;;5057762;28;20717;-65
2022/06/13 05:26:00;;;;;;;1.27;0.90;;;25.50;49.90;;;;;;5053280;28;20032;-62
2022/06/13 05:28:29;;;;;;;1.08;0.80;;;25.50;49.90;;;;;;5056739;28;20092;-66
2022/06/13 05:30:58;;;;;;;0.70;0.70;;;25.50;49.90;;;;;;5056231;28;20044;-65
2022/06/13 05:33:27;;;;;;;0.98;0.80;;;25.50;49.90;;;;;;5056850;28;20029;-64
2022/06/13 05:35:56;;;;;;;1.10;0.80;;;25.50;49.90;;;;;;5056255;28;20072;-65
2022/06/13 05:38:35;;;;;;;1.17;0.82;;;25.50;49.90;;;;;;5055694;28;20405;-65
2022/06/13 05:41:00;;;;;;;;;;;25.50;49.90;;;;;;5053072;28;20400;-65
2022/06/13 05:43:26;;;;;;;0.98;0.82;;;25.50;49.90;;;;;;5050917;28;19919;-66
2022/06/13 05:45:52;;;;;;;1.25;0.80;;;25.50;50.40;;;;;;5055187;28;20040;-63
2022/06/13 05:48:21;;;;;;;1.45;0.82;;;25.50;49.90;;;;;;5058402;28;20043;-66
2022/06/13 05:50:47;;;;;;;1.05;0.77;;;25.50;50.00;;;;;;5061875;28;20029;-65
2022/06/13 05:53:16;;;;;;;1.00;0.90;;;25.50;49.90;;;;;;5055383;28;20032;-65
2022/06/13 05:55:43;;;;;;;1.30;0.90;;;25.50;49.90;;;;;;5056816;28;20055;-63
2022/06/13 05:58:11;;;;;;;1.20;0.80;;;25.40;49.90;;;;;;5058886;28;20056;-66
2022/06/13 06:00:45;;;;;;;0.80;0.70;;;25.50;50.00;;;;;;5060621;28;20036;-65
2022/06/13 06:03:10;;;;;;;2.15;0.80;;;25.50;49.90;;;;;;5061164;28;20024;-66
2022/06/13 06:05:38;;;;;;;1.20;0.80;;;25.50;50.00;;;;;;5061072;28;20078;-64
2022/06/13 06:08:05;;;;;;;0.82;0.75;;;25.50;50.00;;;;;;5058655;28;20476;-66
2022/06/13 06:10:34;;;;;;;0.80;0.70;;;25.50;50.00;;;;;;5060283;28;20036;-65
2022/06/13 06:13:00;;;;;;;1.13;0.82;;;25.50;50.00;;;;;;5060340;28;20536;-65
2022/06/13 06:15:26;;;;;;;1.10;0.80;;;25.40;49.90;;;;;;5059023;28;20155;-64
2022/06/13 06:17:51;;;;;;;1.13;0.80;;;25.50;50.00;;;;;;5059644;28;20749;-65
2022/06/13 06:20:21;;;;;;;0.82;0.70;;;25.40;49.90;;;;;;5059940;28;20039;-62
2022/06/13 06:22:46;;;;;;;0.73;0.70;;;25.50;50.00;;;;;;5058427;28;20028;-65
2022/06/13 06:25:12;;;;;;;0.80;0.70;;;25.50;50.00;;;;;;5058214;28;20028;-62
2022/06/13 06:27:38;;;;;;;0.80;0.70;;;25.40;49.90;;;;;;5059922;28;20324;-65
2022/06/13 06:30:05;;;;;;;1.00;0.90;;;25.40;50.00;;;;;;5060420;28;20032;-65
2022/06/13 06:32:31;;;;;;;1.17;0.90;;;25.40;50.00;;;;;;5060011;28;20036;-65
2022/06/13 06:34:57;;;;;;;1.48;0.98;;;25.40;50.40;;;;;;5060302;28;20032;-64
2022/06/13 06:37:22;;;;;;;1.10;0.80;;;25.40;49.90;;;;;;5057206;28;20261;-65
2022/06/13 06:39:48;;;;;;;1.25;0.90;;;25.40;49.90;;;;;;5057902;28;20213;-63
2022/06/13 06:42:13;;;;;;;0.90;0.70;;;25.40;50.00;;;;;;5060131;28;20078;-64
2022/06/13 06:44:39;;;;;;;0.80;0.70;;;25.40;50.00;;;;;;5059554;28;20033;-65
2022/06/13 06:47:06;;;;;;;1.13;0.80;;;25.40;50.00;;;;;;5060989;28;20124;-65
2022/06/13 06:49:34;;;;;;;1.13;0.80;;;25.40;50.00;;;;;;5060034;28;20025;-65
2022/06/13 06:52:01;;;;;;;1.00;0.80;;;25.40;49.90;;;;;;5058720;28;22086;-65
2022/06/13 06:59:55;;;;;;;1.40;0.90;;;25.40;50.00;;;;;;5056910;28;20044;-65
2022/06/13 07:02:28;;;;;;;1.17;0.85;;;25.40;50.00;;;;;;5041413;28;20020;-65
2022/06/13 07:04:56;;;;;;;0.88;0.70;;;25.40;50.00;;;;;;5059294;28;20059;-65
2022/06/13 07:07:22;;;;;;;0.80;0.68;;;25.40;50.00;;;;;;5060515;28;20036;-65
2022/06/13 07:09:48;;;;;;;1.10;0.80;;;25.40;50.00;;;;;;5057648;28;20542;-63
2022/06/13 07:12:15;;;;;;;0.82;0.70;;;25.40;50.00;;;;;;5059323;28;20043;-65
2022/06/13 07:14:40;;;;;;;0.90;0.80;;;25.40;49.90;;;;;;5059204;28;20051;-65
2022/06/13 07:17:08;;;;;;;1.15;0.85;;;25.40;50.00;;;;;;5057981;28;20039;-63
2022/06/13 07:19:34;;;;;;;1.00;0.88;;;25.40;49.90;;;;;;5059228;28;20059;-64
2022/06/13 07:22:01;;;;;;;0.70;0.70;;;25.40;50.00;;;;;;5054548;28;20024;-65
2022/06/13 07:24:28;;;;;;;0.82;0.77;;;25.40;50.00;;;;;;5056416;28;20070;-62
2022/06/13 07:26:54;;;;;;;1.75;0.80;;;25.40;50.00;;;;;;5059090;28;20514;-65
2022/06/13 07:29:21;;;;;;;0.70;0.70;;;25.40;49.90;;;;;;5056695;28;20090;-64
2022/06/13 07:31:55;;;;;;;1.05;0.73;;;25.40;50.00;;;;;;5057821;28;20045;-64
2022/06/13 07:34:24;;;;;;;1.30;0.77;;;25.40;49.90;;;;;;5056619;28;20044;-65
2022/06/13 07:36:51;;;;;;;0.85;0.73;;;25.40;49.90;;;;;;5060241;28;20032;-64
2022/06/13 07:39:17;;;;;;;0.70;0.70;;;25.40;49.90;;;;;;5055454;28;20384;-62
2022/06/13 07:41:43;;;;;;;0.70;0.70;;;25.40;50.00;;;;;;5058877;28;20036;-65
2022/06/13 07:44:31;;;;;;;1.10;0.80;;;25.40;50.00;;;;;;5039842;28;20468;-64
2022/06/13 07:46:57;;;;;;;0.65;0.65;;;25.40;50.00;;;;;;5060386;28;20125;-64
2022/06/13 07:49:22;;;;;;;0.70;0.70;;;25.40;50.00;;;;;;5059109;28;20032;-65
2022/06/13 07:51:48;;;;;;;0.88;0.80;;;25.40;49.90;;;;;;5059196;28;20044;-65
2022/06/13 07:54:14;;;;;;;1.48;0.80;;;25.40;49.90;;;;;;5053663;28;20414;-65
2022/06/13 07:56:42;;;;;;;0.70;0.70;;;25.40;49.90;;;;;;5057788;28;20389;-64
2022/06/13 07:59:12;;;;;;;0.90;0.63;;;25.40;49.90;;;;;;5058203;28;20115;-63
2022/06/13 08:01:37;;;;;;;1.35;0.80;;;25.40;49.90;;;;;;5057513;28;20146;-64
2022/06/13 08:04:03;;;;;;;0.73;0.70;;;25.40;49.90;;;;;;5059156;28;20032;-64
2022/06/13 08:06:29;;;;;;;1.05;0.80;;;25.40;49.90;;;;;;5056993;28;20032;-65
2022/06/13 08:08:55;;;;;;;0.77;0.77;;;25.40;49.90;;;;;;5055551;28;20043;-64
2022/06/13 08:11:35;;;;;;;1.00;0.77;;;25.40;49.90;;;;;;5057062;28;20032;-65
2022/06/13 08:14:02;;;;;;;0.68;0.68;;;25.40;49.90;;;;;;5056003;28;20039;-63
2022/06/13 08:16:28;;;;;;;0.70;0.70;;;25.40;49.90;;;;;;5058735;28;20120;-65
2022/06/13 08:18:54;;;;;;;0.60;0.60;;;25.40;49.90;;;;;;5058587;28;20083;-65
2022/06/13 08:21:21;;;;;;;0.85;0.60;;;25.40;49.80;;;;;;5058610;28;20075;-65
2022/06/13 08:23:47;;;;;;;0.90;0.70;;;25.40;49.80;;;;;;5053954;28;20489;-64
2022/06/13 08:26:12;;;;;;;0.60;0.60;;;25.40;49.80;;;;;;5054957;28;20034;-64
2022/06/13 08:28:38;;;;;;;0.70;0.70;;;25.40;49.80;;;;;;5057954;28;20038;-64
2022/06/13 08:31:10;;;;;;;0.70;0.70;;;25.40;49.90;;;;;;5055343;28;20427;-64
2022/06/13 08:33:37;;;;;;;1.70;0.70;;;25.40;49.90;;;;;;5059324;28;20318;-64
2022/06/13 08:36:04;;;;;;;0.95;0.80;;;25.40;49.90;;;;;;5055646;28;20102;-65
2022/06/13 08:38:33;;;;;;;1.17;0.80;;;25.40;49.80;;;;;;5056309;28;20154;-64
2022/06/13 08:41:10;;;;;;;0.70;0.70;;;25.40;49.80;;;;;;5051715;28;20152;-64
2022/06/13 08:44:16;;;;;;;1.00;0.70;;;25.40;49.80;;;;;;5057723;28;20028;-64
2022/06/13 08:47:02;;;;;;;1.05;0.60;;;25.30;49.80;;;;;;4968572;28;20045;-62
2022/06/13 08:49:52;;;;;;;1.20;0.80;;;25.40;49.80;;;;;;5055079;28;20112;-64
2022/06/13 08:52:27;;;;;;;0.70;0.70;;;25.40;49.80;;;;;;5056108;28;20063;-65
2022/06/13 08:55:07;;;;;;;1.85;1.00;;;25.40;49.80;;;;;;5051761;28;20036;-64
2022/06/13 08:57:36;;;;;;;0.98;0.80;;;25.40;49.80;;;;;;5057044;28;20078;-61
2022/06/13 09:00:15;;;;;;;0.73;0.70;;;25.40;49.80;;;;;;5057538;28;20020;-63
2022/06/13 09:02:52;;;;;;;1.08;0.70;;;25.40;49.70;;;;;;5057374;28;20120;-62
2022/06/13 09:05:27;;;;;;;0.90;0.70;;;25.40;49.80;;;;;;5050302;28;20037;-63
2022/06/13 09:08:07;;;;;;;0.60;0.57;;;25.40;49.80;;;;;;5051503;28;20032;-65
2022/06/13 09:11:06;;;;;;;0.70;0.60;;;25.40;49.80;;;;;;5052838;28;21210;-64
2022/06/13 09:14:13;;;;;;;0.93;0.60;;;25.40;49.80;;;;;;5051147;28;20479;-64
2022/06/13 09:16:42;;;;;;;1.10;0.70;;;25.30;49.70;;;;;;4952527;28;20042;-65
2022/06/13 09:19:26;;;;;;;1.25;0.80;;;25.30;49.70;;;;;;4954097;28;20035;-62
2022/06/13 09:22:08;;;;;;;0.88;0.77;;;25.30;49.70;;;;;;5016563;28;20050;-62
2022/06/13 09:24:49;;;;;;;0.63;0.60;;;25.30;49.70;;;;;;5051095;28;20028;-64
2022/06/13 09:27:39;;;;;;;0.68;0.68;;;25.30;49.70;;;;;;5055268;28;20036;-64
2022/06/13 09:30:15;;;;;;;0.85;0.70;;;25.30;49.70;;;;;;5055504;28;20054;-64
2022/06/13 09:32:54;;;;;;;1.13;0.70;;;25.30;49.70;;;;;;5054448;28;20489;-64
2022/06/13 09:35:23;;;;;;;0.73;0.70;;;25.30;49.70;;;;;;5053915;28;21722;-64
2022/06/13 09:37:53;;;;;;;0.82;0.70;;;25.30;49.70;;;;;;5054927;28;20129;-64
2022/06/13 09:40:26;;;;;;;0.70;0.70;;;25.30;49.70;;;;;;5054257;28;20469;-63
2022/06/13 09:42:51;;;;;;;1.02;0.80;;;25.30;49.70;;;;;;5054952;28;20020;-64
2022/06/13 09:45:39;;;;;;;0.80;0.60;;;25.40;49.70;;;;;;5056128;28;20038;-65
2022/06/13 09:48:30;;;;;;;0.60;0.60;;;25.40;49.70;;;;;;5058003;28;20488;-63
2022/06/13 09:51:27;;;;;;;0.90;0.70;;;25.30;49.70;;;;;;5055545;28;20036;-64
2022/06/13 09:54:14;;;;;;;1.00;0.80;;;25.30;49.60;;;;;;5052634;28;20108;-65
2022/06/13 09:57:08;;;;;;;0.60;0.60;;;25.30;49.60;;;;;;5054657;28;20788;-64
2022/06/13 09:59:41;;;;;;;1.33;0.80;;;25.30;49.60;;;;;;5055356;28;20419;-66
2022/06/13 10:02:17;;;;;;;0.70;0.52;;;25.30;49.60;;;;;;5055526;28;20029;-65
2022/06/13 10:04:59;;;;;;;1.13;0.70;;;25.30;49.60;;;;;;5054989;28;20032;-65
2022/06/13 10:07:49;;;;;;;0.60;0.60;;;25.30;49.60;;;;;;5056392;28;20028;-62
2022/06/13 10:10:26;;;;;;;0.65;0.65;;;25.30;49.50;;;;;;5054912;28;20074;-65
2022/06/13 10:13:14;;;;;;;0.70;0.60;;;25.30;49.50;;;;;;5056650;28;20044;-64
2022/06/13 10:16:03;;;;;;;0.70;0.50;;;25.30;49.50;;;;;;5057384;28;20127;-62
2022/06/13 10:18:41;;;;;;;0.60;0.60;;;25.30;49.50;;;;;;5043029;28;20074;-62
2022/06/13 10:21:26;;;;;;;1.38;0.80;;;25.30;49.50;;;;;;5057124;28;20038;-63
2022/06/13 10:24:13;;;;;;;0.93;0.70;;;25.30;49.50;;;;;;5051552;28;20048;-66
2022/06/13 10:26:47;;;;;;;1.05;0.65;;;25.30;49.50;;;;;;5036687;28;20039;-64
2022/06/13 10:29:16;;;;;;;0.90;0.70;;;25.30;49.40;;;;;;5052829;28;20050;-65
2022/06/13 10:32:16;;;;;;;0.65;0.65;;;25.30;49.40;;;;;;5056239;28;20032;-65
2022/06/13 10:34:54;;;;;;;0.60;0.60;;;25.30;49.30;;;;;;5056953;28;20029;-65
2022/06/13 10:37:32;;;;;;;1.80;0.80;;;25.30;49.30;;;;;;5058487;28;20448;-67
2022/06/13 10:40:01;;;;;;;1.10;0.70;;;25.30;49.30;;;;;;5057535;28;20024;-65
2022/06/13 10:42:31;;;;;;;0.73;0.70;;;25.30;49.30;;;;;;5060121;28;20094;-61
2022/06/13 10:44:57;;;;;;;0.80;0.70;;;25.30;49.30;;;;;;5058570;28;20119;-65
2022/06/13 10:47:28;;;;;;;0.60;0.60;;;25.30;49.30;;;;;;5058426;28;20454;-65
2022/06/13 10:50:00;;;;;;;0.68;0.60;;;25.30;49.30;;;;;;5054980;28;20047;-64
2022/06/13 10:52:32;;;;;;;0.80;0.65;;;25.30;49.30;;;;;;5059211;28;20032;-64
2022/06/13 10:55:08;;;;;;;0.98;0.75;;;25.30;49.30;;;;;;5055743;28;20492;-61
2022/06/13 10:57:39;;;;;;;0.70;0.60;;;25.30;49.30;;;;;;5059108;28;20084;-65
2022/06/13 11:00:10;;;;;;;0.93;0.70;;;25.30;49.30;;;;;;5058411;28;20060;-64
2022/06/13 11:02:36;;;;;;;0.70;0.70;;;25.30;49.30;;;;;;5058750;28;20434;-66
2022/06/13 11:05:09;;;;;;;0.98;0.80;;;25.30;49.30;;;;;;5059374;28;20044;-61
2022/06/13 11:07:46;;;;;;;0.75;0.60;;;25.30;49.20;;;;;;5059856;28;20081;-65
2022/06/13 11:10:26;;;;;;;1.27;0.70;;;25.30;49.20;;;;;;5054992;28;20163;-64
2022/06/13 11:12:53;;;;;;;0.75;0.63;;;25.30;49.20;;;;;;5054695;28;20032;-65
2022/06/13 11:24:29;;;;;;;0.80;0.70;;;25.30;49.20;;;;;;5054693;28;20043;-64
2022/06/13 11:29:40;;;;;;;1.08;0.70;;;25.40;49.20;;;;;;5055375;28;20043;-66
2022/06/13 11:32:19;;;;;;;0.82;0.60;;;25.40;49.40;;;;;;5058887;28;20055;-62
2022/06/13 11:34:45;;;;;;;0.70;0.60;;;25.40;49.70;;;;;;5057528;28;20028;-64
2022/06/13 11:37:23;;;;;;;0.98;0.60;;;25.40;49.20;;;;;;5058437;28;20048;-65
2022/06/13 11:39:51;;;;;;;0.95;0.60;;;25.30;49.20;;;;;;5053271;28;20532;-61
2022/06/13 11:42:19;;;;;;;1.05;0.80;;;25.40;49.20;;;;;;5057452;28;20136;-63
2022/06/13 11:44:52;;;;;;;0.70;0.60;;;25.40;49.20;;;;;;5055003;28;20044;-64
2022/06/13 11:47:18;;;;;;;0.80;0.65;;;25.40;49.20;;;;;;5056125;28;20120;-63
2022/06/13 11:49:47;;;;;;;1.42;0.80;;;25.40;49.20;;;;;;5053235;28;20372;-63
2022/06/13 11:52:13;;;;;;;1.00;0.80;;;25.40;49.20;;;;;;5054872;28;20054;-61
2022/06/13 11:54:40;;;;;;;1.40;0.77;;;25.40;49.20;;;;;;5053169;28;20032;-65
2022/06/13 11:57:15;;;;;;;0.93;0.70;;;25.40;49.30;;;;;;5037365;28;20403;-65
2022/06/13 11:59:57;;;;;;;0.82;0.63;;;25.40;49.20;;;;;;5055536;28;20448;-65
2022/06/13 12:02:39;;;;;;;0.95;0.68;;;25.40;49.20;;;;;;5056158;28;20358;-66
2022/06/13 12:05:15;;;;;;;1.02;0.70;;;25.30;49.20;;;;;;5056647;28;20048;-64
2022/06/13 12:07:49;;;;;;;1.00;0.70;;;25.40;49.30;;;;;;5056038;28;20065;-64
2022/06/13 12:10:21;;;;;;;1.50;0.80;;;25.40;49.30;;;;;;5056009;28;20025;-63
2022/06/13 12:12:47;;;;;;;0.80;0.70;;;25.40;49.30;;;;;;5055783;28;20391;-66
2022/06/13 12:15:14;;;;;;;0.68;0.63;;;25.40;49.30;;;;;;5054332;28;20111;-65
2022/06/13 12:17:47;;;;;;;1.23;0.90;;;25.40;49.40;;;;;;5055568;28;20044;-62
2022/06/13 12:20:29;;;;;;;1.02;0.70;;;25.40;49.40;;;;;;5054903;28;20021;-66
2022/06/13 12:23:06;;;;;;;1.27;0.70;;;25.40;49.30;;;;;;5052683;28;20028;-66
2022/06/13 12:26:03;;;;;;;0.95;0.68;;;25.40;49.40;;;;;;5054408;28;20498;-66
2022/06/13 12:28:53;;;;;;;1.70;0.82;;;25.40;49.40;;;;;;5055457;28;20029;-62
2022/06/13 12:31:40;;;;;;;1.25;0.80;;;25.40;49.40;;;;;;5055215;28;20029;-62
2022/06/13 12:34:32;;;;;;;1.30;0.80;;;25.40;49.40;;;;;;5053595;28;20403;-64
2022/06/13 12:37:27;;;;;;;0.77;0.70;;;25.40;49.40;;;;;;5054544;28;20111;-63
2022/06/13 12:40:10;;;;;;;0.73;0.60;;;25.40;49.40;;;;;;5007357;28;20048;-64
2022/06/13 12:42:59;;;;;;;0.98;0.70;;;25.40;49.50;;;;;;5053617;28;20056;-64
2022/06/13 12:45:34;;;;;;;;;;;25.40;49.50;;;;;;5039328;28;20062;-62
2022/06/13 12:48:18;;;;;;;1.15;0.73;;;25.40;49.50;;;;;;5055831;28;20513;-66
2022/06/13 12:51:02;;;;;;;1.45;0.80;;;25.40;49.60;;;;;;5056156;28;20211;-65
2022/06/13 12:53:52;;;;;;;1.00;0.65;;;25.40;49.60;;;;;;5054709;28;20127;-64
2022/06/13 12:56:31;;;;;;;0.80;0.65;;;25.40;49.70;;;;;;5056017;28;20509;-62
2022/06/13 12:59:25;;;;;;;0.90;0.60;;;25.40;49.70;;;;;;5054934;28;20078;-65
2022/06/13 13:02:23;;;;;;;1.00;0.70;;;25.40;49.70;;;;;;5054268;28;20139;-63
2022/06/13 13:05:07;;;;;;;1.95;0.80;;;25.40;49.70;;;;;;5055190;28;20087;-64
2022/06/13 13:08:00;;;;;;;1.20;0.70;;;25.40;49.60;;;;;;5052173;28;20117;-62
2022/06/13 13:10:50;;;;;;;0.63;0.63;;;25.40;49.60;;;;;;5049614;28;20040;-65
2022/06/13 13:13:34;;;;;;;0.90;0.70;;;25.40;49.60;;;;;;5054082;28;20070;-66
2022/06/13 13:16:11;;;;;;;1.05;0.80;;;25.40;49.60;;;;;;5053040;28;20028;-66
2022/06/13 13:18:40;;;;;;;1.15;0.80;;;25.40;49.60;;;;;;5053229;28;20039;-65
2022/06/13 13:21:41;;;;;;;1.15;0.80;;;25.50;49.70;;;;;;5054422;28;20486;-64
2022/06/13 13:24:17;;;;;;;1.42;0.80;;;25.40;49.60;;;;;;5052567;28;20492;-64
2022/06/13 13:27:02;;;;;;;1.35;0.80;;;25.40;49.60;;;;;;5053285;28;20495;-66
2022/06/13 13:29:45;;;;;;;1.00;0.70;;;25.50;49.60;;;;;;5053860;28;20523;-67
2022/06/13 13:32:31;;;;;;;0.80;0.70;;;25.40;49.60;;;;;;5054282;28;20037;-65
2022/06/13 13:34:57;;;;;;;0.82;0.60;;;25.50;49.60;;;;;;5055862;28;20047;-67
2022/06/13 13:37:37;;;;;;;0.95;0.70;;;25.40;49.60;;;;;;5049261;28;20025;-65
2022/06/13 13:40:42;;;;;;;0.93;0.73;;;25.40;49.50;;;;;;5050194;28;20029;-63
2022/06/13 13:43:31;;;;;;;1.35;0.73;;;25.40;49.50;;;;;;5051633;28;20086;-66
2022/06/13 13:45:59;;;;;;;1.27;0.75;;;25.40;49.60;;;;;;5035170;28;20224;-64
2022/06/13 13:48:46;;;;;;;0.95;0.70;;;25.40;49.10;;;;;;5051595;28;20036;-64
2022/06/13 13:51:17;;;;;;;1.58;0.82;;;25.40;47.10;;;;;;5042328;28;20337;-66